sensor_id;sensor_type;location;lat;lon;timestamp;P1;durP1;ratioP1;P2;durP2;ratioP2
19869;SDS011;10097;50.862;4.696;2023-01-20T00:01:38;37.23;;;15.50;;
19869;SDS011;10097;50.862;4.696;2023-01-20T00:04:07;37.83;;;15.63;;
19869;SDS011;10097;50.862;4.696;2023-01-20T00:06:33;35.83;;;15.17;;
19869;SDS011;10097;50.862;4.696;2023-01-20T00:09:00;37.10;;;15.53;;
19869;SDS011;10097;50.862;4.696;2023-01-20T00:11:27;38.33;;;14.97;;
19869;SDS011;10097;50.862;4.696;2023-01-20T00:13:54;38.47;;;16.13;;
19869;SDS011;10097;50.862;4.696;2023-01-20T00:16:22;35.80;;;15.40;;
19869;SDS011;10097;50.862;4.696;2023-01-20T00:18:49;43.00;;;15.97;;
19869;SDS011;10097;50.862;4.696;2023-01-20T00:21:15;37.77;;;15.63;;
19869;SDS011;10097;50.862;4.696;2023-01-20T00:23:42;39.03;;;16.40;;
19869;SDS011;10097;50.862;4.696;2023-01-20T00:26:12;35.93;;;15.90;;
19869;SDS011;10097;50.862;4.696;2023-01-20T00:28:47;36.27;;;15.60;;
19869;SDS011;10097;50.862;4.696;2023-01-20T00:31:15;39.60;;;16.60;;
19869;SDS011;10097;50.862;4.696;2023-01-20T00:33:41;34.20;;;14.30;;
19869;SDS011;10097;50.862;4.696;2023-01-20T00:36:07;40.03;;;15.93;;
19869;SDS011;10097;50.862;4.696;2023-01-20T00:38:36;40.47;;;16.83;;
19869;SDS011;10097;50.862;4.696;2023-01-20T00:41:02;41.37;;;16.63;;
19869;SDS011;10097;50.862;4.696;2023-01-20T00:43:28;40.70;;;16.23;;
19869;SDS011;10097;50.862;4.696;2023-01-20T00:45:54;42.33;;;17.77;;
19869;SDS011;10097;50.862;4.696;2023-01-20T00:48:19;43.33;;;16.80;;
19869;SDS011;10097;50.862;4.696;2023-01-20T00:50:45;42.67;;;16.83;;
19869;SDS011;10097;50.862;4.696;2023-01-20T00:53:11;42.87;;;17.33;;
19869;SDS011;10097;50.862;4.696;2023-01-20T00:55:36;43.67;;;17.43;;
19869;SDS011;10097;50.862;4.696;2023-01-20T00:58:02;38.57;;;18.73;;
19869;SDS011;10097;50.862;4.696;2023-01-20T01:00:28;52.40;;;18.53;;
19869;SDS011;10097;50.862;4.696;2023-01-20T01:02:53;55.43;;;17.73;;
19869;SDS011;10097;50.862;4.696;2023-01-20T01:05:20;40.50;;;16.90;;
19869;SDS011;10097;50.862;4.696;2023-01-20T01:12:58;50.77;;;18.03;;
19869;SDS011;10097;50.862;4.696;2023-01-20T01:15:24;51.13;;;17.63;;
19869;SDS011;10097;50.862;4.696;2023-01-20T01:17:51;44.57;;;16.87;;
19869;SDS011;10097;50.862;4.696;2023-01-20T01:20:17;47.93;;;18.53;;
19869;SDS011;10097;50.862;4.696;2023-01-20T01:22:42;42.67;;;18.00;;
19869;SDS011;10097;50.862;4.696;2023-01-20T01:25:08;41.77;;;16.77;;
19869;SDS011;10097;50.862;4.696;2023-01-20T01:27:34;45.83;;;17.93;;
19869;SDS011;10097;50.862;4.696;2023-01-20T01:30:00;42.63;;;17.73;;
19869;SDS011;10097;50.862;4.696;2023-01-20T01:32:25;46.63;;;17.70;;
19869;SDS011;10097;50.862;4.696;2023-01-20T01:34:51;47.77;;;18.50;;
19869;SDS011;10097;50.862;4.696;2023-01-20T01:37:17;43.50;;;17.67;;
19869;SDS011;10097;50.862;4.696;2023-01-20T01:39:42;45.13;;;17.80;;
19869;SDS011;10097;50.862;4.696;2023-01-20T01:42:09;43.27;;;16.90;;
19869;SDS011;10097;50.862;4.696;2023-01-20T01:44:37;43.87;;;16.33;;
19869;SDS011;10097;50.862;4.696;2023-01-20T01:47:22;46.00;;;16.27;;
19869;SDS011;10097;50.862;4.696;2023-01-20T01:49:48;42.07;;;15.10;;
19869;SDS011;10097;50.862;4.696;2023-01-20T01:52:14;45.37;;;16.97;;
19869;SDS011;10097;50.862;4.696;2023-01-20T01:54:40;44.30;;;16.87;;
19869;SDS011;10097;50.862;4.696;2023-01-20T01:57:09;40.70;;;15.97;;
19869;SDS011;10097;50.862;4.696;2023-01-20T01:59:35;44.47;;;16.53;;
19869;SDS011;10097;50.862;4.696;2023-01-20T02:02:02;44.57;;;15.90;;
19869;SDS011;10097;50.862;4.696;2023-01-20T02:04:28;39.03;;;15.07;;
19869;SDS011;10097;50.862;4.696;2023-01-20T02:06:56;35.40;;;14.50;;
19869;SDS011;10097;50.862;4.696;2023-01-20T02:09:28;38.00;;;14.07;;
19869;SDS011;10097;50.862;4.696;2023-01-20T02:11:55;39.40;;;14.63;;
19869;SDS011;10097;50.862;4.696;2023-01-20T02:14:31;31.83;;;13.07;;
19869;SDS011;10097;50.862;4.696;2023-01-20T02:17:03;36.77;;;13.10;;
19869;SDS011;10097;50.862;4.696;2023-01-20T02:34:29;33.77;;;13.63;;
19869;SDS011;10097;50.862;4.696;2023-01-20T02:37:13;33.20;;;12.60;;
19869;SDS011;10097;50.862;4.696;2023-01-20T02:42:28;31.57;;;13.17;;
19869;SDS011;10097;50.862;4.696;2023-01-20T02:44:58;33.30;;;12.97;;
19869;SDS011;10097;50.862;4.696;2023-01-20T02:50:19;34.47;;;13.43;;
19869;SDS011;10097;50.862;4.696;2023-01-20T02:53:06;34.13;;;13.23;;
19869;SDS011;10097;50.862;4.696;2023-01-20T02:55:47;29.27;;;12.90;;
19869;SDS011;10097;50.862;4.696;2023-01-20T02:58:20;34.13;;;12.73;;
19869;SDS011;10097;50.862;4.696;2023-01-20T03:00:50;31.57;;;12.83;;
19869;SDS011;10097;50.862;4.696;2023-01-20T03:03:24;35.67;;;12.67;;
19869;SDS011;10097;50.862;4.696;2023-01-20T03:05:55;38.03;;;13.33;;
19869;SDS011;10097;50.862;4.696;2023-01-20T03:08:24;36.53;;;12.70;;
19869;SDS011;10097;50.862;4.696;2023-01-20T03:10:53;36.17;;;13.43;;
19869;SDS011;10097;50.862;4.696;2023-01-20T03:13:28;37.70;;;14.27;;
19869;SDS011;10097;50.862;4.696;2023-01-20T03:16:09;37.97;;;14.03;;
19869;SDS011;10097;50.862;4.696;2023-01-20T03:18:39;32.77;;;13.63;;
19869;SDS011;10097;50.862;4.696;2023-01-20T03:21:05;35.10;;;13.37;;
19869;SDS011;10097;50.862;4.696;2023-01-20T03:23:34;33.53;;;13.23;;
19869;SDS011;10097;50.862;4.696;2023-01-20T03:26:03;35.73;;;13.30;;
19869;SDS011;10097;50.862;4.696;2023-01-20T03:28:32;36.40;;;15.00;;
19869;SDS011;10097;50.862;4.696;2023-01-20T03:30:58;35.70;;;14.03;;
19869;SDS011;10097;50.862;4.696;2023-01-20T03:33:28;33.70;;;13.30;;
19869;SDS011;10097;50.862;4.696;2023-01-20T03:35:53;34.57;;;13.83;;
19869;SDS011;10097;50.862;4.696;2023-01-20T03:38:19;35.50;;;14.00;;
19869;SDS011;10097;50.862;4.696;2023-01-20T03:43:54;33.03;;;13.43;;
19869;SDS011;10097;50.862;4.696;2023-01-20T03:46:53;39.37;;;13.77;;
19869;SDS011;10097;50.862;4.696;2023-01-20T03:49:28;41.37;;;14.73;;
19869;SDS011;10097;50.862;4.696;2023-01-20T03:52:18;35.33;;;13.13;;
19869;SDS011;10097;50.862;4.696;2023-01-20T03:54:52;35.53;;;13.63;;
19869;SDS011;10097;50.862;4.696;2023-01-20T03:57:25;34.20;;;13.27;;
19869;SDS011;10097;50.862;4.696;2023-01-20T03:59:53;36.03;;;13.27;;
19869;SDS011;10097;50.862;4.696;2023-01-20T04:02:21;33.03;;;12.20;;
19869;SDS011;10097;50.862;4.696;2023-01-20T04:04:47;26.80;;;12.10;;
19869;SDS011;10097;50.862;4.696;2023-01-20T04:07:19;33.07;;;12.90;;
19869;SDS011;10097;50.862;4.696;2023-01-20T04:09:53;37.37;;;12.43;;
19869;SDS011;10097;50.862;4.696;2023-01-20T04:12:22;34.27;;;12.87;;
19869;SDS011;10097;50.862;4.696;2023-01-20T04:14:48;34.00;;;12.63;;
19869;SDS011;10097;50.862;4.696;2023-01-20T04:17:13;35.80;;;13.93;;
19869;SDS011;10097;50.862;4.696;2023-01-20T04:19:39;35.67;;;13.43;;
19869;SDS011;10097;50.862;4.696;2023-01-20T04:22:11;36.87;;;14.03;;
19869;SDS011;10097;50.862;4.696;2023-01-20T04:25:02;29.13;;;12.40;;
19869;SDS011;10097;50.862;4.696;2023-01-20T04:27:44;32.77;;;12.97;;
19869;SDS011;10097;50.862;4.696;2023-01-20T04:30:11;36.47;;;14.77;;
19869;SDS011;10097;50.862;4.696;2023-01-20T04:32:38;33.80;;;13.20;;
19869;SDS011;10097;50.862;4.696;2023-01-20T04:35:03;33.10;;;13.33;;
19869;SDS011;10097;50.862;4.696;2023-01-20T04:37:29;41.20;;;14.40;;
19869;SDS011;10097;50.862;4.696;2023-01-20T04:39:55;35.13;;;14.97;;
19869;SDS011;10097;50.862;4.696;2023-01-20T04:42:21;34.90;;;14.37;;
19869;SDS011;10097;50.862;4.696;2023-01-20T04:44:46;37.07;;;14.53;;
19869;SDS011;10097;50.862;4.696;2023-01-20T04:47:12;37.43;;;14.73;;
19869;SDS011;10097;50.862;4.696;2023-01-20T04:49:37;36.70;;;14.70;;
19869;SDS011;10097;50.862;4.696;2023-01-20T04:52:03;36.83;;;15.67;;
19869;SDS011;10097;50.862;4.696;2023-01-20T04:54:29;39.83;;;15.83;;
19869;SDS011;10097;50.862;4.696;2023-01-20T04:56:54;38.17;;;15.20;;
19869;SDS011;10097;50.862;4.696;2023-01-20T04:59:20;37.13;;;14.80;;
19869;SDS011;10097;50.862;4.696;2023-01-20T05:01:45;39.33;;;13.90;;
19869;SDS011;10097;50.862;4.696;2023-01-20T05:04:11;35.67;;;14.87;;
19869;SDS011;10097;50.862;4.696;2023-01-20T05:06:37;34.23;;;13.93;;
19869;SDS011;10097;50.862;4.696;2023-01-20T05:09:06;37.43;;;15.00;;
19869;SDS011;10097;50.862;4.696;2023-01-20T05:11:34;35.77;;;14.93;;
19869;SDS011;10097;50.862;4.696;2023-01-20T05:14:00;35.43;;;14.27;;
19869;SDS011;10097;50.862;4.696;2023-01-20T05:16:26;35.93;;;14.63;;
19869;SDS011;10097;50.862;4.696;2023-01-20T05:18:55;33.83;;;13.80;;
19869;SDS011;10097;50.862;4.696;2023-01-20T05:21:21;35.60;;;12.90;;
19869;SDS011;10097;50.862;4.696;2023-01-20T05:23:47;38.43;;;14.83;;
19869;SDS011;10097;50.862;4.696;2023-01-20T05:26:13;36.07;;;14.07;;
19869;SDS011;10097;50.862;4.696;2023-01-20T05:28:40;33.00;;;13.83;;
19869;SDS011;10097;50.862;4.696;2023-01-20T05:31:08;32.63;;;14.00;;
19869;SDS011;10097;50.862;4.696;2023-01-20T05:33:33;38.57;;;15.37;;
19869;SDS011;10097;50.862;4.696;2023-01-20T05:36:03;36.60;;;13.90;;
19869;SDS011;10097;50.862;4.696;2023-01-20T05:38:30;32.80;;;13.37;;
19869;SDS011;10097;50.862;4.696;2023-01-20T05:40:59;32.63;;;13.97;;
19869;SDS011;10097;50.862;4.696;2023-01-20T05:43:25;35.83;;;14.17;;
19869;SDS011;10097;50.862;4.696;2023-01-20T05:45:51;36.53;;;13.70;;
19869;SDS011;10097;50.862;4.696;2023-01-20T05:48:17;30.93;;;13.60;;
19869;SDS011;10097;50.862;4.696;2023-01-20T05:50:42;33.90;;;13.40;;
19869;SDS011;10097;50.862;4.696;2023-01-20T05:53:08;33.43;;;12.87;;
19869;SDS011;10097;50.862;4.696;2023-01-20T05:55:34;30.03;;;12.90;;
19869;SDS011;10097;50.862;4.696;2023-01-20T05:58:00;33.17;;;13.20;;
19869;SDS011;10097;50.862;4.696;2023-01-20T06:00:27;40.23;;;14.03;;
19869;SDS011;10097;50.862;4.696;2023-01-20T06:02:52;32.67;;;13.33;;
19869;SDS011;10097;50.862;4.696;2023-01-20T06:05:18;35.13;;;14.30;;
19869;SDS011;10097;50.862;4.696;2023-01-20T06:07:44;33.63;;;13.67;;
19869;SDS011;10097;50.862;4.696;2023-01-20T06:10:10;35.80;;;13.83;;
19869;SDS011;10097;50.862;4.696;2023-01-20T06:12:36;32.30;;;13.90;;
19869;SDS011;10097;50.862;4.696;2023-01-20T06:15:02;31.23;;;14.83;;
19869;SDS011;10097;50.862;4.696;2023-01-20T06:17:28;30.63;;;14.17;;
19869;SDS011;10097;50.862;4.696;2023-01-20T06:19:54;37.00;;;15.17;;
19869;SDS011;10097;50.862;4.696;2023-01-20T06:22:20;36.17;;;15.00;;
19869;SDS011;10097;50.862;4.696;2023-01-20T06:24:45;30.93;;;14.10;;
19869;SDS011;10097;50.862;4.696;2023-01-20T06:27:11;36.83;;;14.63;;
19869;SDS011;10097;50.862;4.696;2023-01-20T06:29:37;31.53;;;13.77;;
19869;SDS011;10097;50.862;4.696;2023-01-20T06:32:03;37.90;;;15.20;;
19869;SDS011;10097;50.862;4.696;2023-01-20T06:34:29;35.37;;;14.60;;
19869;SDS011;10097;50.862;4.696;2023-01-20T06:36:54;35.10;;;15.27;;
19869;SDS011;10097;50.862;4.696;2023-01-20T06:39:21;36.70;;;15.40;;
19869;SDS011;10097;50.862;4.696;2023-01-20T06:41:46;34.37;;;15.60;;
19869;SDS011;10097;50.862;4.696;2023-01-20T06:44:12;36.53;;;15.87;;
19869;SDS011;10097;50.862;4.696;2023-01-20T06:46:38;42.63;;;16.43;;
19869;SDS011;10097;50.862;4.696;2023-01-20T06:49:03;34.93;;;15.37;;
19869;SDS011;10097;50.862;4.696;2023-01-20T06:51:30;35.97;;;14.97;;
19869;SDS011;10097;50.862;4.696;2023-01-20T06:53:57;32.83;;;14.93;;
19869;SDS011;10097;50.862;4.696;2023-01-20T06:56:23;32.70;;;15.30;;
19869;SDS011;10097;50.862;4.696;2023-01-20T06:58:49;38.87;;;14.20;;
19869;SDS011;10097;50.862;4.696;2023-01-20T07:01:22;32.07;;;14.33;;
19869;SDS011;10097;50.862;4.696;2023-01-20T07:03:52;33.53;;;14.30;;
19869;SDS011;10097;50.862;4.696;2023-01-20T07:06:21;31.73;;;14.57;;
19869;SDS011;10097;50.862;4.696;2023-01-20T07:08:49;33.43;;;14.20;;
19869;SDS011;10097;50.862;4.696;2023-01-20T07:11:14;32.33;;;13.73;;
19869;SDS011;10097;50.862;4.696;2023-01-20T07:13:40;28.30;;;12.87;;
19869;SDS011;10097;50.862;4.696;2023-01-20T07:16:07;29.43;;;13.80;;
19869;SDS011;10097;50.862;4.696;2023-01-20T07:18:33;33.43;;;14.27;;
19869;SDS011;10097;50.862;4.696;2023-01-20T07:20:59;32.00;;;13.47;;
19869;SDS011;10097;50.862;4.696;2023-01-20T07:23:24;30.40;;;13.63;;
19869;SDS011;10097;50.862;4.696;2023-01-20T07:28:28;32.50;;;13.00;;
19869;SDS011;10097;50.862;4.696;2023-01-20T07:30:55;32.80;;;13.27;;
19869;SDS011;10097;50.862;4.696;2023-01-20T07:33:20;36.30;;;13.77;;
19869;SDS011;10097;50.862;4.696;2023-01-20T07:35:50;31.23;;;13.13;;
19869;SDS011;10097;50.862;4.696;2023-01-20T07:38:17;29.17;;;12.73;;
19869;SDS011;10097;50.862;4.696;2023-01-20T07:40:43;31.43;;;12.63;;
19869;SDS011;10097;50.862;4.696;2023-01-20T07:43:08;30.57;;;13.87;;
19869;SDS011;10097;50.862;4.696;2023-01-20T07:45:34;31.47;;;13.10;;
19869;SDS011;10097;50.862;4.696;2023-01-20T07:47:59;30.70;;;13.77;;
19869;SDS011;10097;50.862;4.696;2023-01-20T07:50:27;29.40;;;13.60;;
19869;SDS011;10097;50.862;4.696;2023-01-20T07:52:53;27.77;;;13.60;;
19869;SDS011;10097;50.862;4.696;2023-01-20T07:55:19;32.97;;;13.80;;
19869;SDS011;10097;50.862;4.696;2023-01-20T07:57:45;35.00;;;13.40;;
19869;SDS011;10097;50.862;4.696;2023-01-20T08:00:11;34.53;;;14.00;;
19869;SDS011;10097;50.862;4.696;2023-01-20T08:02:37;31.80;;;13.13;;
19869;SDS011;10097;50.862;4.696;2023-01-20T08:05:04;31.17;;;13.43;;
19869;SDS011;10097;50.862;4.696;2023-01-20T08:07:30;32.77;;;14.10;;
19869;SDS011;10097;50.862;4.696;2023-01-20T08:09:56;28.07;;;13.10;;
19869;SDS011;10097;50.862;4.696;2023-01-20T08:12:22;32.53;;;13.33;;
19869;SDS011;10097;50.862;4.696;2023-01-20T08:14:48;30.97;;;13.40;;
19869;SDS011;10097;50.862;4.696;2023-01-20T08:17:14;28.83;;;13.87;;
19869;SDS011;10097;50.862;4.696;2023-01-20T08:19:40;32.37;;;13.43;;
19869;SDS011;10097;50.862;4.696;2023-01-20T08:22:05;34.20;;;13.80;;
19869;SDS011;10097;50.862;4.696;2023-01-20T08:24:31;36.47;;;13.77;;
19869;SDS011;10097;50.862;4.696;2023-01-20T08:26:57;32.87;;;13.60;;
19869;SDS011;10097;50.862;4.696;2023-01-20T08:29:23;32.80;;;13.47;;
19869;SDS011;10097;50.862;4.696;2023-01-20T08:31:49;32.73;;;13.23;;
19869;SDS011;10097;50.862;4.696;2023-01-20T08:34:15;31.60;;;13.20;;
19869;SDS011;10097;50.862;4.696;2023-01-20T08:36:42;35.83;;;14.17;;
19869;SDS011;10097;50.862;4.696;2023-01-20T08:39:09;39.63;;;14.33;;
19869;SDS011;10097;50.862;4.696;2023-01-20T08:41:38;31.10;;;13.63;;
19869;SDS011;10097;50.862;4.696;2023-01-20T08:44:07;30.10;;;12.90;;
19869;SDS011;10097;50.862;4.696;2023-01-20T08:46:34;30.60;;;13.13;;
19869;SDS011;10097;50.862;4.696;2023-01-20T08:49:01;32.57;;;13.13;;
19869;SDS011;10097;50.862;4.696;2023-01-20T08:51:31;30.93;;;12.87;;
19869;SDS011;10097;50.862;4.696;2023-01-20T08:53:57;30.83;;;12.73;;
19869;SDS011;10097;50.862;4.696;2023-01-20T08:56:23;32.80;;;12.80;;
19869;SDS011;10097;50.862;4.696;2023-01-20T08:58:49;27.07;;;12.13;;
19869;SDS011;10097;50.862;4.696;2023-01-20T09:01:17;31.80;;;12.70;;
19869;SDS011;10097;50.862;4.696;2023-01-20T09:03:44;28.30;;;13.17;;
19869;SDS011;10097;50.862;4.696;2023-01-20T09:06:10;30.23;;;13.53;;
19869;SDS011;10097;50.862;4.696;2023-01-20T09:08:37;34.30;;;13.27;;
19869;SDS011;10097;50.862;4.696;2023-01-20T09:11:13;30.93;;;12.30;;
19869;SDS011;10097;50.862;4.696;2023-01-20T09:13:40;31.20;;;13.20;;
19869;SDS011;10097;50.862;4.696;2023-01-20T09:16:07;27.50;;;12.27;;
19869;SDS011;10097;50.862;4.696;2023-01-20T09:18:35;31.27;;;12.60;;
19869;SDS011;10097;50.862;4.696;2023-01-20T09:21:00;27.20;;;12.23;;
19869;SDS011;10097;50.862;4.696;2023-01-20T09:23:30;26.63;;;12.63;;
19869;SDS011;10097;50.862;4.696;2023-01-20T09:26:00;31.97;;;12.40;;
19869;SDS011;10097;50.862;4.696;2023-01-20T09:28:28;31.97;;;13.20;;
19869;SDS011;10097;50.862;4.696;2023-01-20T09:31:01;30.50;;;11.97;;
19869;SDS011;10097;50.862;4.696;2023-01-20T09:33:32;28.37;;;10.63;;
19869;SDS011;10097;50.862;4.696;2023-01-20T09:36:00;25.17;;;12.00;;
19869;SDS011;10097;50.862;4.696;2023-01-20T09:38:27;25.10;;;11.73;;
19869;SDS011;10097;50.862;4.696;2023-01-20T09:41:18;26.73;;;12.70;;
19869;SDS011;10097;50.862;4.696;2023-01-20T09:50:02;24.83;;;11.00;;
19869;SDS011;10097;50.862;4.696;2023-01-20T09:52:49;24.57;;;11.10;;
19869;SDS011;10097;50.862;4.696;2023-01-20T09:55:31;22.77;;;11.03;;
19869;SDS011;10097;50.862;4.696;2023-01-20T10:01:19;22.93;;;10.60;;
19869;SDS011;10097;50.862;4.696;2023-01-20T10:06:21;22.30;;;10.23;;
19869;SDS011;10097;50.862;4.696;2023-01-20T10:08:57;26.03;;;10.87;;
19869;SDS011;10097;50.862;4.696;2023-01-20T10:11:27;21.80;;;10.37;;
19869;SDS011;10097;50.862;4.696;2023-01-20T10:14:04;27.77;;;10.43;;
19869;SDS011;10097;50.862;4.696;2023-01-20T10:16:49;22.53;;;10.60;;
19869;SDS011;10097;50.862;4.696;2023-01-20T10:19:20;22.77;;;10.50;;
19869;SDS011;10097;50.862;4.696;2023-01-20T10:21:56;24.47;;;11.40;;
19869;SDS011;10097;50.862;4.696;2023-01-20T10:24:27;30.73;;;12.40;;
19869;SDS011;10097;50.862;4.696;2023-01-20T10:27:02;23.13;;;10.63;;
19869;SDS011;10097;50.862;4.696;2023-01-20T10:32:33;20.07;;;10.40;;
19869;SDS011;10097;50.862;4.696;2023-01-20T10:35:27;19.40;;;9.77;;
19869;SDS011;10097;50.862;4.696;2023-01-20T10:37:55;21.93;;;9.53;;
19869;SDS011;10097;50.862;4.696;2023-01-20T10:42:49;22.37;;;9.70;;
19869;SDS011;10097;50.862;4.696;2023-01-20T10:45:29;24.90;;;9.80;;
19869;SDS011;10097;50.862;4.696;2023-01-20T10:53:52;19.67;;;8.07;;
19869;SDS011;10097;50.862;4.696;2023-01-20T10:56:48;16.63;;;8.60;;
19869;SDS011;10097;50.862;4.696;2023-01-20T10:59:23;21.27;;;8.63;;
19869;SDS011;10097;50.862;4.696;2023-01-20T11:04:49;23.67;;;8.40;;
19869;SDS011;10097;50.862;4.696;2023-01-20T11:07:26;21.90;;;8.53;;
19869;SDS011;10097;50.862;4.696;2023-01-20T11:09:53;22.77;;;8.67;;
19869;SDS011;10097;50.862;4.696;2023-01-20T11:12:23;19.87;;;8.40;;
19869;SDS011;10097;50.862;4.696;2023-01-20T11:14:54;22.00;;;8.30;;
19869;SDS011;10097;50.862;4.696;2023-01-20T11:17:23;19.63;;;8.00;;
19869;SDS011;10097;50.862;4.696;2023-01-20T11:19:51;17.93;;;6.90;;
19869;SDS011;10097;50.862;4.696;2023-01-20T11:22:23;19.37;;;7.93;;
19869;SDS011;10097;50.862;4.696;2023-01-20T11:24:52;16.40;;;7.17;;
19869;SDS011;10097;50.862;4.696;2023-01-20T11:27:21;21.30;;;6.87;;
19869;SDS011;10097;50.862;4.696;2023-01-20T11:29:52;21.17;;;7.60;;
19869;SDS011;10097;50.862;4.696;2023-01-20T11:32:35;18.47;;;7.03;;
19869;SDS011;10097;50.862;4.696;2023-01-20T11:37:46;17.83;;;6.97;;
19869;SDS011;10097;50.862;4.696;2023-01-20T11:42:45;14.67;;;6.33;;
19869;SDS011;10097;50.862;4.696;2023-01-20T11:45:29;16.93;;;6.77;;
19869;SDS011;10097;50.862;4.696;2023-01-20T11:50:38;16.07;;;5.40;;
19869;SDS011;10097;50.862;4.696;2023-01-20T11:53:25;19.53;;;5.53;;
19869;SDS011;10097;50.862;4.696;2023-01-20T11:56:13;22.17;;;5.43;;
19869;SDS011;10097;50.862;4.696;2023-01-20T12:01:30;14.20;;;4.70;;
19869;SDS011;10097;50.862;4.696;2023-01-20T12:04:22;13.47;;;4.90;;
19869;SDS011;10097;50.862;4.696;2023-01-20T12:06:55;18.20;;;5.67;;
19869;SDS011;10097;50.862;4.696;2023-01-20T12:09:30;19.13;;;6.10;;
19869;SDS011;10097;50.862;4.696;2023-01-20T12:12:03;16.37;;;5.10;;
19869;SDS011;10097;50.862;4.696;2023-01-20T12:14:51;13.40;;;4.90;;
19869;SDS011;10097;50.862;4.696;2023-01-20T12:17:26;14.53;;;5.40;;
19869;SDS011;10097;50.862;4.696;2023-01-20T12:20:01;18.03;;;6.07;;
19869;SDS011;10097;50.862;4.696;2023-01-20T12:22:47;15.70;;;5.40;;
19869;SDS011;10097;50.862;4.696;2023-01-20T12:25:21;14.77;;;5.83;;
19869;SDS011;10097;50.862;4.696;2023-01-20T12:27:55;17.93;;;5.27;;
19869;SDS011;10097;50.862;4.696;2023-01-20T12:38:56;18.97;;;6.17;;
19869;SDS011;10097;50.862;4.696;2023-01-20T12:56:24;14.87;;;5.73;;
19869;SDS011;10097;50.862;4.696;2023-01-20T12:59:39;20.23;;;7.07;;
19869;SDS011;10097;50.862;4.696;2023-01-20T13:05:29;12.83;;;5.53;;
19869;SDS011;10097;50.862;4.696;2023-01-20T13:11:17;12.20;;;5.40;;
19869;SDS011;10097;50.862;4.696;2023-01-20T13:14:07;15.80;;;5.80;;
19869;SDS011;10097;50.862;4.696;2023-01-20T13:19:57;18.87;;;6.33;;
19869;SDS011;10097;50.862;4.696;2023-01-20T13:22:24;14.67;;;6.23;;
19869;SDS011;10097;50.862;4.696;2023-01-20T13:24:51;13.50;;;5.67;;
19869;SDS011;10097;50.862;4.696;2023-01-20T13:27:29;14.77;;;5.87;;
19869;SDS011;10097;50.862;4.696;2023-01-20T13:29:59;20.10;;;6.33;;
19869;SDS011;10097;50.862;4.696;2023-01-20T13:37:46;17.90;;;6.20;;
19869;SDS011;10097;50.862;4.696;2023-01-20T13:43:00;18.20;;;6.83;;
19869;SDS011;10097;50.862;4.696;2023-01-20T13:48:29;13.63;;;5.53;;
19869;SDS011;10097;50.862;4.696;2023-01-20T13:53:43;14.80;;;5.70;;
19869;SDS011;10097;50.862;4.696;2023-01-20T13:56:25;16.33;;;6.47;;
19869;SDS011;10097;50.862;4.696;2023-01-20T13:58:59;17.23;;;7.17;;
19869;SDS011;10097;50.862;4.696;2023-01-20T14:01:25;19.23;;;6.40;;
19869;SDS011;10097;50.862;4.696;2023-01-20T14:04:01;19.07;;;6.70;;
19869;SDS011;10097;50.862;4.696;2023-01-20T14:06:29;14.27;;;5.93;;
19869;SDS011;10097;50.862;4.696;2023-01-20T14:08:57;13.20;;;6.10;;
19869;SDS011;10097;50.862;4.696;2023-01-20T14:11:24;19.30;;;5.83;;
19869;SDS011;10097;50.862;4.696;2023-01-20T14:13:55;12.13;;;5.40;;
19869;SDS011;10097;50.862;4.696;2023-01-20T14:16:40;15.20;;;6.00;;
19869;SDS011;10097;50.862;4.696;2023-01-20T14:21:49;18.20;;;5.37;;
19869;SDS011;10097;50.862;4.696;2023-01-20T14:24:30;11.53;;;4.53;;
19869;SDS011;10097;50.862;4.696;2023-01-20T14:27:05;16.43;;;4.77;;
19869;SDS011;10097;50.862;4.696;2023-01-20T14:29:54;12.10;;;4.60;;
19869;SDS011;10097;50.862;4.696;2023-01-20T14:32:31;15.40;;;4.47;;
19869;SDS011;10097;50.862;4.696;2023-01-20T14:34:58;13.57;;;4.17;;
19869;SDS011;10097;50.862;4.696;2023-01-20T14:37:32;15.67;;;4.20;;
19869;SDS011;10097;50.862;4.696;2023-01-20T14:40:04;9.77;;;4.00;;
19869;SDS011;10097;50.862;4.696;2023-01-20T14:42:36;18.50;;;4.20;;
19869;SDS011;10097;50.862;4.696;2023-01-20T14:45:17;15.97;;;4.30;;
19869;SDS011;10097;50.862;4.696;2023-01-20T14:47:44;17.40;;;4.40;;
19869;SDS011;10097;50.862;4.696;2023-01-20T14:50:15;14.87;;;4.33;;
19869;SDS011;10097;50.862;4.696;2023-01-20T14:52:42;14.93;;;4.53;;
19869;SDS011;10097;50.862;4.696;2023-01-20T14:58:44;11.93;;;4.57;;
19869;SDS011;10097;50.862;4.696;2023-01-20T15:01:17;15.13;;;5.23;;
19869;SDS011;10097;50.862;4.696;2023-01-20T15:03:57;15.37;;;4.83;;
19869;SDS011;10097;50.862;4.696;2023-01-20T15:06:24;14.27;;;4.80;;
19869;SDS011;10097;50.862;4.696;2023-01-20T15:08:51;16.93;;;5.30;;
19869;SDS011;10097;50.862;4.696;2023-01-20T15:11:20;14.77;;;5.53;;
19869;SDS011;10097;50.862;4.696;2023-01-20T15:16:25;15.83;;;5.03;;
19869;SDS011;10097;50.862;4.696;2023-01-20T15:21:38;13.40;;;4.97;;
19869;SDS011;10097;50.862;4.696;2023-01-20T15:24:32;15.33;;;5.20;;
19869;SDS011;10097;50.862;4.696;2023-01-20T15:27:01;14.67;;;4.83;;
19869;SDS011;10097;50.862;4.696;2023-01-20T15:29:42;16.73;;;5.33;;
19869;SDS011;10097;50.862;4.696;2023-01-20T15:32:23;15.63;;;4.60;;
19869;SDS011;10097;50.862;4.696;2023-01-20T15:34:49;14.77;;;4.53;;
19869;SDS011;10097;50.862;4.696;2023-01-20T15:37:16;13.13;;;4.10;;
19869;SDS011;10097;50.862;4.696;2023-01-20T15:39:42;11.07;;;2.90;;
19869;SDS011;10097;50.862;4.696;2023-01-20T15:42:11;12.80;;;2.53;;
19869;SDS011;10097;50.862;4.696;2023-01-20T15:44:39;10.57;;;3.00;;
19869;SDS011;10097;50.862;4.696;2023-01-20T15:47:15;9.57;;;2.70;;
19869;SDS011;10097;50.862;4.696;2023-01-20T15:49:51;9.40;;;2.70;;
19869;SDS011;10097;50.862;4.696;2023-01-20T15:52:16;8.83;;;2.53;;
19869;SDS011;10097;50.862;4.696;2023-01-20T15:54:43;9.67;;;2.77;;
19869;SDS011;10097;50.862;4.696;2023-01-20T15:57:12;12.40;;;3.13;;
19869;SDS011;10097;50.862;4.696;2023-01-20T15:59:39;22.33;;;3.73;;
19869;SDS011;10097;50.862;4.696;2023-01-20T16:02:19;7.37;;;2.27;;
19869;SDS011;10097;50.862;4.696;2023-01-20T16:04:46;10.10;;;2.80;;
19869;SDS011;10097;50.862;4.696;2023-01-20T16:07:13;11.37;;;2.80;;
19869;SDS011;10097;50.862;4.696;2023-01-20T16:09:42;8.07;;;2.53;;
19869;SDS011;10097;50.862;4.696;2023-01-20T16:12:14;9.57;;;2.60;;
19869;SDS011;10097;50.862;4.696;2023-01-20T16:14:41;11.03;;;3.10;;
19869;SDS011;10097;50.862;4.696;2023-01-20T16:17:11;9.37;;;2.83;;
19869;SDS011;10097;50.862;4.696;2023-01-20T16:19:39;9.70;;;3.27;;
19869;SDS011;10097;50.862;4.696;2023-01-20T16:22:05;7.03;;;3.60;;
19869;SDS011;10097;50.862;4.696;2023-01-20T16:24:32;6.60;;;3.33;;
19869;SDS011;10097;50.862;4.696;2023-01-20T16:26:58;6.27;;;3.17;;
19869;SDS011;10097;50.862;4.696;2023-01-20T16:29:26;7.87;;;3.30;;
19869;SDS011;10097;50.862;4.696;2023-01-20T16:31:52;8.00;;;3.30;;
19869;SDS011;10097;50.862;4.696;2023-01-20T16:34:17;7.80;;;3.63;;
19869;SDS011;10097;50.862;4.696;2023-01-20T16:36:43;7.07;;;3.30;;
19869;SDS011;10097;50.862;4.696;2023-01-20T16:39:09;6.17;;;3.10;;
19869;SDS011;10097;50.862;4.696;2023-01-20T16:41:35;6.73;;;3.10;;
19869;SDS011;10097;50.862;4.696;2023-01-20T16:44:01;7.77;;;3.10;;
19869;SDS011;10097;50.862;4.696;2023-01-20T16:46:29;7.67;;;3.27;;
19869;SDS011;10097;50.862;4.696;2023-01-20T16:48:56;8.10;;;3.23;;